Time;durP1;ratioP1;P1;durP2;ratioP2;P2;SDS_P1;SDS_P2;PMS_P1;PMS_P2;Temp;Humidity;BMP_temperature;BMP_pressure;BME280_temperature;BME280_humidity;BME280_pressure;Samples;Min_cycle;Max_cycle;Signal;HPM_P1;HPM_P2
2023/04/26 00:00:42;;;;;;;9.43;6.07;;;;;;;;;;5035750;28;20209;-75
2023/04/26 00:03:46;;;;;;;10.20;5.63;;;;;;;;;;5035877;28;20189;-75
2023/04/26 00:06:51;;;;;;;11.70;5.43;;;;;;;;;;5023550;28;20201;-75
2023/04/26 00:09:55;;;;;;;10.90;6.03;;;;;;;;;;5023741;28;20201;-75
2023/04/26 00:12:59;;;;;;;9.93;6.20;;;;;;;;;;5023401;28;20177;-75
2023/04/26 00:16:04;;;;;;;8.70;6.07;;;;;;;;;;5035818;28;20180;-75
2023/04/26 00:19:11;;;;;;;7.23;5.67;;;;;;;;;;5035744;28;20628;-75
2023/04/26 00:22:16;;;;;;;8.03;5.70;;;;;;;;;;5035330;28;20208;-75
2023/04/26 00:25:20;;;;;;;8.37;5.73;;;;;;;;;;5023228;28;20185;-75
2023/04/26 00:28:24;;;;;;;10.47;6.30;;;;;;;;;;5035334;28;20176;-75
2023/04/26 00:31:28;;;;;;;10.67;6.27;;;;;;;;;;5011848;28;20552;-75
2023/04/26 00:34:33;;;;;;;8.17;5.70;;;;;;;;;;5023398;28;20181;-75
2023/04/26 00:37:36;;;;;;;10.30;6.07;;;;;;;;;;5022980;28;20177;-75
2023/04/26 00:40:41;;;;;;;16.53;6.80;;;;;;;;;;5022740;28;20209;-75
2023/04/26 00:43:46;;;;;;;10.17;5.90;;;;;;;;;;5011511;28;20205;-75
2023/04/26 00:46:52;;;;;;;9.20;6.70;;;;;;;;;;5022961;28;20521;-75
2023/04/26 00:49:56;;;;;;;10.03;5.47;;;;;;;;;;5023019;28;20204;-75
2023/04/26 00:53:01;;;;;;;11.07;6.50;;;;;;;;;;5012003;28;20176;-75
2023/04/26 00:56:08;;;;;;;9.57;5.80;;;;;;;;;;5011663;28;20520;-75
2023/04/26 00:59:12;;;;;;;8.57;5.83;;;;;;;;;;5022902;28;20620;-75
2023/04/26 01:02:17;;;;;;;7.77;5.87;;;;;;;;;;5022442;28;20224;-75
2023/04/26 01:05:22;;;;;;;10.83;5.97;;;;;;;;;;5034896;28;20185;-75
2023/04/26 01:08:26;;;;;;;11.20;6.37;;;;;;;;;;5022368;28;20196;-75
2023/04/26 01:11:32;;;;;;;8.63;5.97;;;;;;;;;;5010931;28;20686;-75
2023/04/26 01:14:36;;;;;;;8.37;6.17;;;;;;;;;;5021908;28;20197;-75
2023/04/26 01:17:40;;;;;;;8.80;6.20;;;;;;;;;;5022215;28;20177;-75
2023/04/26 01:20:45;;;;;;;7.47;6.20;;;;;;;;;;5022324;28;20204;-75
2023/04/26 01:23:51;;;;;;;8.60;5.83;;;;;;;;;;5034296;28;20185;-75
2023/04/26 01:26:55;;;;;;;12.23;6.40;;;;;;;;;;5022008;28;20200;-75
2023/04/26 01:29:59;;;;;;;9.07;5.93;;;;;;;;;;5022171;28;20196;-75
2023/04/26 01:33:03;;;;;;;8.53;6.40;;;;;;;;;;5034088;28;20192;-75
2023/04/26 01:36:09;;;;;;;10.50;6.60;;;;;;;;;;5034691;28;20184;-75
2023/04/26 01:39:13;;;;;;;8.33;5.83;;;;;;;;;;5022087;28;20189;-75
2023/04/26 01:42:17;;;;;;;11.27;6.97;;;;;;;;;;5021583;28;20228;-75
2023/04/26 01:45:21;;;;;;;10.10;6.37;;;;;;;;;;5033854;28;20201;-75
2023/04/26 01:48:44;;;;;;;9.90;6.47;;;;;;;;;;5034090;28;20185;-75
2023/04/26 01:51:48;;;;;;;11.50;6.73;;;;;;;;;;5022096;28;20216;-75
2023/04/26 01:54:52;;;;;;;10.07;6.37;;;;;;;;;;5021866;28;20180;-75
2023/04/26 01:57:57;;;;;;;11.13;6.90;;;;;;;;;;5033684;28;20184;-75
2023/04/26 02:01:08;;;;;;;9.07;6.40;;;;;;;;;;5021319;28;20576;-75
2023/04/26 02:04:14;;;;;;;10.33;7.33;;;;;;;;;;5021759;28;20185;-75
2023/04/26 02:07:19;;;;;;;9.80;6.80;;;;;;;;;;4999302;28;20632;-75
2023/04/26 02:10:23;;;;;;;12.53;7.10;;;;;;;;;;5010357;28;20181;-76
2023/04/26 02:13:29;;;;;;;10.73;6.73;;;;;;;;;;5033669;28;20185;-75
2023/04/26 02:16:33;;;;;;;9.90;6.90;;;;;;;;;;5021123;28;20663;-75
2023/04/26 02:19:37;;;;;;;11.53;7.50;;;;;;;;;;5010096;28;20196;-75
2023/04/26 02:22:41;;;;;;;10.53;7.47;;;;;;;;;;5021037;28;20224;-75
2023/04/26 02:25:48;;;;;;;12.27;7.80;;;;;;;;;;5020951;28;20185;-75
2023/04/26 02:28:54;;;;;;;12.97;7.30;;;;;;;;;;5033254;28;20177;-75
2023/04/26 02:31:58;;;;;;;10.93;7.03;;;;;;;;;;5033203;28;20204;-74
2023/04/26 02:35:04;;;;;;;12.20;6.97;;;;;;;;;;5021008;28;20521;-75
2023/04/26 02:38:08;;;;;;;13.30;7.70;;;;;;;;;;5033358;28;20180;-74
2023/04/26 02:41:12;;;;;;;9.73;7.47;;;;;;;;;;5020997;28;20220;-75
2023/04/26 02:44:16;;;;;;;12.03;7.17;;;;;;;;;;5009745;28;20659;-75
2023/04/26 02:47:20;;;;;;;10.90;7.57;;;;;;;;;;5009589;28;20189;-75
2023/04/26 02:50:25;;;;;;;10.23;6.83;;;;;;;;;;5009979;28;20177;-74
2023/04/26 02:53:29;;;;;;;9.23;7.00;;;;;;;;;;5021089;28;20619;-75
2023/04/26 02:56:34;;;;;;;12.27;8.07;;;;;;;;;;5020831;28;20185;-75
2023/04/26 02:59:38;;;;;;;13.57;8.57;;;;;;;;;;4998543;28;20199;-75
2023/04/26 03:02:42;;;;;;;12.50;7.03;;;;;;;;;;5020554;28;20577;-75
2023/04/26 03:05:46;;;;;;;11.13;7.60;;;;;;;;;;5021011;28;20189;-75
2023/04/26 03:08:51;;;;;;;11.77;8.10;;;;;;;;;;5020838;28;20181;-75
2023/04/26 03:11:55;;;;;;;10.60;6.60;;;;;;;;;;4998426;28;20216;-75
2023/04/26 03:15:02;;;;;;;10.23;6.80;;;;;;;;;;5020943;28;20177;-75
2023/04/26 03:18:07;;;;;;;12.57;7.33;;;;;;;;;;5009750;28;20189;-75
2023/04/26 03:21:11;;;;;;;11.37;7.00;;;;;;;;;;5020536;28;20221;-75
2023/04/26 03:24:15;;;;;;;12.50;7.93;;;;;;;;;;5009439;28;20181;-75
2023/04/26 03:27:19;;;;;;;12.37;7.30;;;;;;;;;;5020567;28;20184;-75
2023/04/26 03:30:24;;;;;;;13.30;8.00;;;;;;;;;;5020541;28;20624;-75
2023/04/26 03:33:30;;;;;;;14.13;7.90;;;;;;;;;;4998053;28;20193;-75
2023/04/26 03:36:34;;;;;;;12.13;8.33;;;;;;;;;;5009906;28;20177;-74
2023/04/26 03:39:40;;;;;;;11.53;7.90;;;;;;;;;;5024103;28;20185;-75
2023/04/26 03:42:44;;;;;;;12.53;8.97;;;;;;;;;;5012505;28;20224;-75
2023/04/26 03:45:49;;;;;;;16.60;9.33;;;;;;;;;;5024220;28;20188;-75
2023/04/26 03:48:53;;;;;;;14.60;9.67;;;;;;;;;;5012836;28;20197;-75
2023/04/26 03:51:57;;;;;;;12.63;8.67;;;;;;;;;;5023766;28;20208;-75
2023/04/26 03:55:01;;;;;;;14.60;9.50;;;;;;;;;;5023888;28;20176;-75
2023/04/26 03:58:06;;;;;;;15.57;9.13;;;;;;;;;;5023742;28;20188;-75
2023/04/26 04:01:11;;;;;;;14.57;9.40;;;;;;;;;;5012438;28;20213;-75
2023/04/26 04:04:15;;;;;;;14.23;9.60;;;;;;;;;;5012597;28;20181;-74
2023/04/26 04:07:21;;;;;;;17.47;9.97;;;;;;;;;;5023552;28;20192;-75
2023/04/26 04:10:25;;;;;;;15.37;9.27;;;;;;;;;;5012175;28;20197;-75
2023/04/26 04:13:29;;;;;;;16.60;9.77;;;;;;;;;;5012493;28;20623;-75
2023/04/26 04:16:34;;;;;;;15.73;9.73;;;;;;;;;;5023593;28;20516;-75
2023/04/26 04:19:38;;;;;;;15.87;9.57;;;;;;;;;;5023919;28;20181;-74
2023/04/26 04:22:43;;;;;;;15.30;10.23;;;;;;;;;;5023204;28;20216;-75
2023/04/26 04:25:48;;;;;;;15.93;10.60;;;;;;;;;;5023373;28;20176;-75
2023/04/26 04:28:52;;;;;;;16.10;10.30;;;;;;;;;;5023065;28;20181;-73
2023/04/26 04:31:56;;;;;;;16.07;10.70;;;;;;;;;;5022337;28;20217;-74
2023/04/26 04:35:01;;;;;;;15.63;10.50;;;;;;;;;;5022543;28;20573;-73
2023/04/26 04:38:05;;;;;;;15.87;10.43;;;;;;;;;;5023250;28;20181;-73
2023/04/26 04:41:10;;;;;;;15.67;10.33;;;;;;;;;;5011288;28;20220;-73
2023/04/26 04:44:15;;;;;;;14.77;9.90;;;;;;;;;;5022551;28;20196;-74
2023/04/26 04:47:19;;;;;;;15.30;9.67;;;;;;;;;;5022993;28;20185;-73
2023/04/26 04:50:24;;;;;;;13.53;9.23;;;;;;;;;;5023057;28;20624;-73
2023/04/26 04:53:28;;;;;;;16.80;10.13;;;;;;;;;;5022651;28;20173;-74
2023/04/26 04:56:32;;;;;;;16.23;10.40;;;;;;;;;;5034847;28;20181;-73
2023/04/26 04:59:36;;;;;;;17.73;10.70;;;;;;;;;;5011519;28;20173;-74
2023/04/26 05:02:41;;;;;;;15.53;9.87;;;;;;;;;;5022297;28;20221;-73
2023/04/26 05:05:45;;;;;;;16.73;10.63;;;;;;;;;;5022724;28;20180;-73
2023/04/26 05:08:50;;;;;;;13.30;9.77;;;;;;;;;;5034576;28;20177;-74
2023/04/26 05:11:54;;;;;;;14.97;10.10;;;;;;;;;;5022340;28;20213;-73
2023/04/26 05:14:58;;;;;;;16.90;10.07;;;;;;;;;;5011237;28;20177;-73
2023/04/26 05:18:03;;;;;;;16.13;9.87;;;;;;;;;;5022122;28;20197;-74
2023/04/26 05:21:07;;;;;;;15.37;9.80;;;;;;;;;;5022589;28;20532;-73
2023/04/26 05:24:11;;;;;;;16.10;9.27;;;;;;;;;;5011097;28;20177;-73
2023/04/26 05:27:16;;;;;;;17.30;10.03;;;;;;;;;;5022382;28;20188;-74
2023/04/26 05:30:29;;;;;;;14.47;9.87;;;;;;;;;;5021887;28;20192;-73
2023/04/26 05:33:43;;;;;;;16.57;8.83;;;;;;;;;;5021903;28;20177;-74
2023/04/26 05:37:03;;;;;;;12.93;8.40;;;;;;;;;;5022182;28;20185;-74
2023/04/26 05:40:08;;;;;;;15.70;8.30;;;;;;;;;;5022063;28;20181;-73
2023/04/26 05:43:13;;;;;;;12.57;8.60;;;;;;;;;;5021519;28;20224;-73
2023/04/26 05:46:17;;;;;;;12.30;7.97;;;;;;;;;;5021909;28;20181;-74
2023/04/26 05:49:22;;;;;;;26.03;15.40;;;;;;;;;;5021845;28;20279;-73
2023/04/26 05:52:27;;;;;;;14.07;9.03;;;;;;;;;;5021226;28;20208;-74
2023/04/26 05:55:31;;;;;;;11.37;7.53;;;;;;;;;;5021257;28;20201;-74
2023/04/26 05:58:35;;;;;;;13.43;7.10;;;;;;;;;;5033488;28;20177;-73
2023/04/26 06:01:41;;;;;;;12.93;6.63;;;;;;;;;;5020947;28;20556;-74
2023/04/26 06:04:45;;;;;;;13.03;6.80;;;;;;;;;;5009410;28;20505;-73
2023/04/26 06:07:52;;;;;;;9.27;7.13;;;;;;;;;;5010330;28;20196;-73
2023/04/26 06:10:57;;;;;;;13.60;6.50;;;;;;;;;;5021143;28;20216;-74
2023/04/26 06:14:01;;;;;;;12.93;7.23;;;;;;;;;;5020984;28;20173;-74
2023/04/26 06:17:05;;;;;;;8.20;6.50;;;;;;;;;;5033028;28;20185;-74
2023/04/26 06:20:10;;;;;;;11.37;6.97;;;;;;;;;;5020874;28;20185;-73
2023/04/26 06:23:14;;;;;;;9.87;6.57;;;;;;;;;;4990439;28;20205;-73
2023/04/26 06:26:18;;;;;;;13.20;6.30;;;;;;;;;;5001145;28;20205;-73
2023/04/26 06:29:22;;;;;;;10.63;6.53;;;;;;;;;;5015683;23;20236;-69
2023/04/26 06:32:26;;;;;;;11.00;6.20;;;;;;;;;;5001038;28;20691;-68
2023/04/26 06:35:31;;;;;;;10.30;5.37;;;;;;;;;;5001338;28;20643;-69
2023/04/26 06:38:36;;;;;;;11.23;5.17;;;;;;;;;;5001489;28;20548;-69
2023/04/26 06:41:40;;;;;;;9.20;5.67;;;;;;;;;;5001102;28;20216;-69
2023/04/26 06:44:47;;;;;;;10.70;6.13;;;;;;;;;;4989639;28;20193;-68
2023/04/26 06:47:52;;;;;;;8.47;5.77;;;;;;;;;;5015938;28;20185;-68
2023/04/26 06:50:56;;;;;;;11.13;5.97;;;;;;;;;;4990030;28;20225;-69
2023/04/26 06:54:00;;;;;;;8.73;5.40;;;;;;;;;;5012990;28;20660;-69
2023/04/26 06:57:04;;;;;;;8.37;5.63;;;;;;;;;;5013254;28;20182;-69
2023/04/26 07:00:09;;;;;;;11.13;5.50;;;;;;;;;;5012177;28;20173;-69
2023/04/26 07:03:13;;;;;;;9.97;4.83;;;;;;;;;;5012786;28;20205;-69
2023/04/26 07:06:17;;;;;;;8.93;5.00;;;;;;;;;;5012059;28;20181;-68
2023/04/26 07:09:22;;;;;;;8.77;4.97;;;;;;;;;;5001076;28;20190;-69
2023/04/26 07:12:26;;;;;;;11.50;4.57;;;;;;;;;;5014232;28;20221;-69
2023/04/26 07:15:31;;;;;;;10.70;5.30;;;;;;;;;;5016711;28;20178;-70
2023/04/26 07:18:35;;;;;;;9.07;4.73;;;;;;;;;;5004712;28;20185;-69
2023/04/26 07:21:39;;;;;;;10.17;4.27;;;;;;;;;;5016421;28;20221;-68
2023/04/26 07:24:43;;;;;;;7.37;4.27;;;;;;;;;;5016695;28;20510;-69
2023/04/26 07:27:50;;;;;;;7.80;4.87;;;;;;;;;;5016654;28;20525;-68
2023/04/26 07:30:54;;;;;;;7.90;4.20;;;;;;;;;;5016830;28;20684;-69
2023/04/26 07:33:58;;;;;;;11.33;3.83;;;;;;;;;;5016407;28;20193;-69
2023/04/26 07:37:03;;;;;;;8.83;4.67;;;;;;;;;;5016369;28;20174;-69
2023/04/26 07:40:09;;;;;;;10.57;4.33;;;;;;;;;;5004156;28;20178;-69
2023/04/26 07:43:14;;;;;;;8.00;4.33;;;;;;;;;;5016229;28;20206;-69
2023/04/26 07:46:18;;;;;;;8.23;4.10;;;;;;;;;;5015383;28;20181;-69
2023/04/26 07:49:22;;;;;;;15.13;8.30;;;;;;;;;;5016314;28;20186;-69
2023/04/26 07:52:27;;;;;;;5.90;3.93;;;;;;;;;;5004162;28;20695;-72
2023/04/26 07:55:31;;;;;;;7.47;3.63;;;;;;;;;;5003958;28;20181;-72
2023/04/26 07:58:37;;;;;;;3.30;2.50;;;;;;;;;;5015789;28;20174;-72
2023/04/26 08:01:41;;;;;;;9.10;3.00;;;;;;;;;;5003931;28;20217;-69
2023/04/26 08:04:54;;;;;;;7.47;3.53;;;;;;;;;;5015889;28;20177;-69
2023/04/26 08:07:59;;;;;;;7.13;3.43;;;;;;;;;;5015649;28;20189;-69
2023/04/26 08:11:06;;;;;;;3.80;2.73;;;;;;;;;;5003585;28;20229;-69
2023/04/26 08:14:10;;;;;;;9.33;3.20;;;;;;;;;;5003560;28;20189;-70
2023/04/26 08:17:14;;;;;;;6.20;2.90;;;;;;;;;;5003739;28;20197;-69
2023/04/26 08:20:19;;;;;;;5.77;3.00;;;;;;;;;;5015543;28;20197;-70
2023/04/26 08:23:23;;;;;;;5.57;2.90;;;;;;;;;;5015100;28;20205;-69
2023/04/26 08:26:27;;;;;;;6.07;3.03;;;;;;;;;;5015566;28;20181;-69
2023/04/26 08:29:32;;;;;;;4.50;2.57;;;;;;;;;;4996144;28;20206;-69
2023/04/26 08:32:36;;;;;;;9.10;2.80;;;;;;;;;;4995928;28;20218;-69
2023/04/26 08:35:40;;;;;;;6.77;2.70;;;;;;;;;;4996069;28;20186;-69
2023/04/26 08:38:45;;;;;;;9.50;4.67;;;;;;;;;;4984223;28;20186;-70
2023/04/26 08:41:53;;;;;;;12.00;6.03;;;;;;;;;;4995968;28;20214;-70
2023/04/26 08:45:01;;;;;;;6.77;3.33;;;;;;;;;;4995989;28;20208;-70
2023/04/26 08:48:10;;;;;;;7.27;2.90;;;;;;;;;;4983742;28;20174;-70
2023/04/26 08:51:16;;;;;;;7.13;2.87;;;;;;;;;;4995819;28;20554;-69
2023/04/26 08:54:21;;;;;;;7.30;3.03;;;;;;;;;;4995685;28;20182;-69
2023/04/26 08:57:25;;;;;;;4.40;2.40;;;;;;;;;;4983744;28;20178;-69
2023/04/26 09:00:29;;;;;;;8.67;2.93;;;;;;;;;;4995624;28;20514;-69
2023/04/26 09:03:34;;;;;;;5.60;3.17;;;;;;;;;;4995272;28;20725;-69
2023/04/26 09:06:39;;;;;;;5.40;2.73;;;;;;;;;;4995289;28;20637;-69
2023/04/26 09:09:47;;;;;;;6.53;2.87;;;;;;;;;;4995754;28;20198;-69
2023/04/26 09:12:52;;;;;;;7.10;2.60;;;;;;;;;;4983085;28;20214;-69
2023/04/26 09:15:56;;;;;;;4.53;2.97;;;;;;;;;;4983595;28;20178;-69
2023/04/26 09:19:00;;;;;;;5.23;2.93;;;;;;;;;;4995310;28;20514;-69
2023/04/26 09:22:05;;;;;;;7.53;3.00;;;;;;;;;;4995211;28;20680;-69
2023/04/26 09:25:10;;;;;;;7.63;2.57;;;;;;;;;;4995476;28;20175;-69
2023/04/26 09:28:19;;;;;;;8.80;3.17;;;;;;;;;;4995201;28;20206;-70
2023/04/26 09:31:42;;;;;;;5.37;2.83;;;;;;;;;;4995253;28;20562;-69
2023/04/26 09:34:46;;;;;;;5.00;2.67;;;;;;;;;;4982644;28;20187;-69
2023/04/26 09:37:55;;;;;;;8.77;2.60;;;;;;;;;;4994967;28;20182;-69
2023/04/26 09:41:01;;;;;;;8.80;2.63;;;;;;;;;;4983231;28;20558;-69
2023/04/26 09:44:05;;;;;;;7.23;2.70;;;;;;;;;;4982737;28;20677;-69
2023/04/26 09:47:11;;;;;;;8.53;2.50;;;;;;;;;;4994853;28;20182;-70
2023/04/26 09:50:25;;;;;;;5.87;3.00;;;;;;;;;;4995209;28;20541;-69
2023/04/26 09:53:37;;;;;;;6.00;2.80;;;;;;;;;;5001783;28;20197;-70
2023/04/26 09:56:57;;;;;;;5.60;2.90;;;;;;;;;;5014026;28;20186;-71
2023/04/26 10:00:09;;;;;;;7.20;2.83;;;;;;;;;;5001544;28;20189;-70
2023/04/26 10:03:14;;;;;;;7.17;2.30;;;;;;;;;;5001697;28;20696;-69
2023/04/26 10:06:18;;;;;;;5.27;2.40;;;;;;;;;;5001500;28;20182;-69
2023/04/26 10:09:22;;;;;;;9.20;2.83;;;;;;;;;;5001361;28;20182;-69
2023/04/26 10:12:28;;;;;;;6.80;2.37;;;;;;;;;;5013336;28;20209;-69
2023/04/26 10:15:32;;;;;;;4.93;2.60;;;;;;;;;;5013627;28;20628;-69
2023/04/26 10:18:36;;;;;;;6.10;2.60;;;;;;;;;;4990991;28;20182;-70
2023/04/26 10:21:42;;;;;;;3.57;2.63;;;;;;;;;;5013982;28;20212;-69
2023/04/26 10:24:47;;;;;;;5.97;3.00;;;;;;;;;;5001668;28;20202;-69
2023/04/26 10:27:51;;;;;;;7.67;2.50;;;;;;;;;;5001946;28;20178;-69
2023/04/26 10:30:57;;;;;;;6.23;2.97;;;;;;;;;;5001770;28;20544;-69
2023/04/26 10:34:35;;;;;;;6.50;2.80;;;;;;;;;;5013506;28;20177;-70
2023/04/26 10:38:00;;;;;;;5.00;2.30;;;;;;;;;;5019575;28;20186;-69
2023/04/26 10:41:28;;;;;;;5.93;2.67;;;;;;;;;;5013679;28;20217;-69
2023/04/26 10:44:38;;;;;;;7.13;3.10;;;;;;;;;;5013569;28;20209;-69
2023/04/26 10:47:42;;;;;;;9.43;3.27;;;;;;;;;;5019608;28;20181;-70
2023/04/26 10:51:07;;;;;;;9.37;2.70;;;;;;;;;;5019953;28;20192;-70
2023/04/26 10:54:11;;;;;;;5.93;2.50;;;;;;;;;;5020032;28;20616;-70
2023/04/26 10:57:16;;;;;;;5.97;2.70;;;;;;;;;;5019994;28;20526;-70
2023/04/26 11:00:28;;;;;;;6.23;2.50;;;;;;;;;;5007933;28;20181;-70
2023/04/26 11:03:32;;;;;;;4.70;2.50;;;;;;;;;;5020464;28;20205;-71
2023/04/26 11:06:53;;;;;;;6.40;3.03;;;;;;;;;;5019669;28;20197;-70
2023/04/26 11:09:59;;;;;;;4.70;1.87;;;;;;;;;;5019685;28;20181;-70
2023/04/26 11:13:03;;;;;;;5.27;2.40;;;;;;;;;;5020410;28;20181;-70
2023/04/26 11:16:09;;;;;;;5.77;1.63;;;;;;;;;;5019893;28;20182;-69
2023/04/26 11:19:13;;;;;;;4.03;2.33;;;;;;;;;;5019379;28;20174;-70
2023/04/26 11:22:21;;;;;;;6.10;2.13;;;;;;;;;;5019651;28;20221;-70
2023/04/26 11:25:29;;;;;;;4.27;2.07;;;;;;;;;;5007233;28;20205;-70
2023/04/26 11:28:38;;;;;;;2.23;1.63;;;;;;;;;;5019432;28;20178;-71
2023/04/26 11:31:41;;;;;;;2.67;1.80;;;;;;;;;;5007407;28;20217;-70
2023/04/26 11:34:49;;;;;;;3.87;1.90;;;;;;;;;;5019609;28;20185;-70
2023/04/26 11:37:57;;;;;;;3.97;1.70;;;;;;;;;;4996278;28;20185;-70
2023/04/26 11:41:02;;;;;;;7.47;1.83;;;;;;;;;;5019475;28;20217;-70
2023/04/26 11:44:09;;;;;;;3.53;1.80;;;;;;;;;;5019430;28;20213;-71
2023/04/26 11:47:13;;;;;;;3.20;1.80;;;;;;;;;;5019106;28;20193;-70
2023/04/26 11:50:19;;;;;;;4.27;1.53;;;;;;;;;;5007296;28;20186;-70
2023/04/26 11:53:23;;;;;;;5.43;1.53;;;;;;;;;;5019313;28;20624;-70
2023/04/26 11:56:28;;;;;;;4.57;1.60;;;;;;;;;;5019093;28;20178;-70
2023/04/26 11:59:32;;;;;;;5.40;1.80;;;;;;;;;;5004136;28;20505;-70
2023/04/26 12:02:37;;;;;;;6.63;2.30;;;;;;;;;;5016211;28;20213;-70
2023/04/26 12:05:41;;;;;;;4.23;2.07;;;;;;;;;;5003783;28;20206;-70
2023/04/26 12:08:50;;;;;;;5.17;2.20;;;;;;;;;;5004058;28;20185;-70
2023/04/26 12:12:01;;;;;;;6.83;2.53;;;;;;;;;;5003983;28;20213;-70
2023/04/26 12:15:10;;;;;;;4.13;2.30;;;;;;;;;;5015989;28;20174;-70
2023/04/26 12:18:14;;;;;;;5.53;2.30;;;;;;;;;;5004140;28;20182;-70
2023/04/26 12:21:19;;;;;;;6.27;2.20;;;;;;;;;;4993116;28;20209;-70
2023/04/26 12:24:33;;;;;;;4.77;2.30;;;;;;;;;;5016284;28;20537;-70
2023/04/26 12:27:38;;;;;;;3.70;2.13;;;;;;;;;;5015373;28;20197;-70
2023/04/26 12:30:42;;;;;;;3.40;2.10;;;;;;;;;;5015902;28;20178;-70
2023/04/26 12:33:46;;;;;;;5.50;2.50;;;;;;;;;;5015421;28;20173;-70
2023/04/26 12:36:51;;;;;;;5.37;2.53;;;;;;;;;;5015563;28;20486;-70
2023/04/26 12:39:55;;;;;;;4.77;2.47;;;;;;;;;;5015713;28;20177;-69
2023/04/26 12:42:59;;;;;;;6.13;2.67;;;;;;;;;;5015208;28;20181;-70
2023/04/26 12:46:03;;;;;;;4.30;2.20;;;;;;;;;;5015353;28;20174;-69
2023/04/26 12:49:07;;;;;;;8.40;2.03;;;;;;;;;;5003184;28;20201;-70
2023/04/26 12:52:11;;;;;;;6.50;2.40;;;;;;;;;;5002921;28;20221;-70
2023/04/26 12:55:16;;;;;;;4.17;2.27;;;;;;;;;;5015178;28;20173;-71
2023/04/26 12:58:21;;;;;;;6.00;2.57;;;;;;;;;;5015708;28;20640;-71
2023/04/26 13:01:25;;;;;;;4.33;2.33;;;;;;;;;;5002669;28;20221;-71
2023/04/26 13:04:29;;;;;;;5.13;2.43;;;;;;;;;;5002822;28;20210;-71
2023/04/26 13:07:35;;;;;;;5.63;1.90;;;;;;;;;;4992095;28;20181;-71
2023/04/26 13:10:39;;;;;;;3.67;2.17;;;;;;;;;;5001650;28;20186;-71
2023/04/26 13:13:43;;;;;;;9.17;2.23;;;;;;;;;;5014862;28;20177;-70
2023/04/26 13:16:48;;;;;;;3.83;1.83;;;;;;;;;;5014996;28;20561;-70
2023/04/26 13:19:52;;;;;;;5.27;2.00;;;;;;;;;;5015303;28;20178;-70
2023/04/26 13:22:57;;;;;;;4.63;1.80;;;;;;;;;;5014640;28;20197;-70
2023/04/26 13:26:01;;;;;;;6.03;1.90;;;;;;;;;;5014387;28;20225;-70
2023/04/26 13:29:05;;;;;;;3.57;1.80;;;;;;;;;;5014573;28;20208;-71
2023/04/26 13:32:09;;;;;;;3.57;1.77;;;;;;;;;;5014197;28;20557;-70
2023/04/26 13:35:13;;;;;;;4.87;1.93;;;;;;;;;;4991365;28;20181;-71
2023/04/26 13:38:17;;;;;;;4.33;1.90;;;;;;;;;;5014403;28;20181;-70
2023/04/26 13:41:21;;;;;;;6.73;2.27;;;;;;;;;;5014554;28;20557;-70
2023/04/26 13:44:27;;;;;;;4.50;1.90;;;;;;;;;;5014474;28;20656;-70
2023/04/26 13:47:31;;;;;;;4.80;1.77;;;;;;;;;;5013892;28;20189;-70
2023/04/26 13:50:36;;;;;;;4.97;1.60;;;;;;;;;;5014357;28;20182;-70
2023/04/26 13:53:40;;;;;;;2.97;1.70;;;;;;;;;;5014632;28;20624;-70
2023/04/26 13:56:44;;;;;;;3.67;1.67;;;;;;;;;;5013742;28;20182;-70
2023/04/26 13:59:48;;;;;;;3.93;1.40;;;;;;;;;;5002267;28;20521;-71
2023/04/26 14:02:53;;;;;;;2.80;1.80;;;;;;;;;;5013925;28;20209;-69
2023/04/26 14:05:57;;;;;;;5.07;2.47;;;;;;;;;;4990696;28;20213;-71
2023/04/26 14:09:01;;;;;;;3.40;1.60;;;;;;;;;;5013955;28;20189;-70
2023/04/26 14:12:05;;;;;;;3.87;1.60;;;;;;;;;;5001727;28;20213;-71
2023/04/26 14:15:09;;;;;;;4.03;1.87;;;;;;;;;;5013736;28;20173;-71
2023/04/26 14:18:13;;;;;;;4.37;2.20;;;;;;;;;;5013783;28;20190;-71
2023/04/26 14:21:18;;;;;;;5.07;1.90;;;;;;;;;;5013552;28;20213;-71
2023/04/26 14:24:23;;;;;;;3.33;1.40;;;;;;;;;;5013729;28;20181;-71
2023/04/26 14:27:27;;;;;;;4.80;1.90;;;;;;;;;;5013402;28;20182;-71
2023/04/26 14:30:31;;;;;;;3.03;1.80;;;;;;;;;;5001362;28;20200;-72
2023/04/26 14:33:35;;;;;;;3.47;1.80;;;;;;;;;;5001662;28;20625;-72
2023/04/26 14:36:39;;;;;;;4.30;1.87;;;;;;;;;;5013549;28;20170;-70
2023/04/26 14:39:43;;;;;;;5.57;2.27;;;;;;;;;;5013427;28;20198;-70
2023/04/26 14:42:47;;;;;;;5.50;1.67;;;;;;;;;;5013343;28;20594;-70
2023/04/26 14:45:51;;;;;;;4.83;1.77;;;;;;;;;;4989994;28;20573;-69
2023/04/26 14:48:56;;;;;;;2.50;1.70;;;;;;;;;;5013973;28;20174;-71
2023/04/26 14:52:00;;;;;;;4.67;1.80;;;;;;;;;;5001282;28;20209;-70
2023/04/26 14:55:04;;;;;;;7.57;2.27;;;;;;;;;;4990193;28;20173;-70
2023/04/26 14:58:08;;;;;;;2.40;1.90;;;;;;;;;;5001237;28;20181;-70
2023/04/26 15:01:13;;;;;;;4.90;2.03;;;;;;;;;;5012962;28;20216;-69
2023/04/26 15:04:17;;;;;;;4.90;2.50;;;;;;;;;;5013263;28;20174;-70
2023/04/26 15:07:21;;;;;;;5.63;2.07;;;;;;;;;;4990205;28;20205;-70
2023/04/26 15:10:25;;;;;;;4.77;2.40;;;;;;;;;;5013365;28;20185;-70
2023/04/26 15:13:29;;;;;;;5.83;2.30;;;;;;;;;;5013327;28;20185;-70
2023/04/26 15:16:33;;;;;;;8.57;2.73;;;;;;;;;;5001164;28;20629;-70
2023/04/26 15:19:38;;;;;;;6.03;2.43;;;;;;;;;;5013440;28;20182;-70
2023/04/26 15:23:07;;;;;;;4.17;2.10;;;;;;;;;;5001932;28;20217;-70
2023/04/26 15:26:12;;;;;;;6.40;2.30;;;;;;;;;;4972041;28;20230;-73
2023/04/26 15:29:16;;;;;;;5.73;2.20;;;;;;;;;;4973793;28;20666;-73
2023/04/26 15:32:20;;;;;;;7.53;2.10;;;;;;;;;;4973652;28;20222;-73
2023/04/26 15:35:25;;;;;;;4.27;2.00;;;;;;;;;;4977767;28;20175;-73
2023/04/26 15:38:28;;;;;;;3.23;2.37;;;;;;;;;;4977374;28;20546;-73
2023/04/26 15:41:33;;;;;;;4.13;2.50;;;;;;;;;;4965364;28;20214;-73
2023/04/26 15:44:37;;;;;;;5.50;2.70;;;;;;;;;;4965348;28;20183;-73
2023/04/26 15:47:41;;;;;;;6.97;2.60;;;;;;;;;;4965412;28;20634;-73
2023/04/26 15:50:45;;;;;;;6.90;4.13;;;;;;;;;;4965635;28;20187;-73
2023/04/26 15:53:50;;;;;;;3.70;2.10;;;;;;;;;;4978078;28;20182;-73
2023/04/26 15:56:54;;;;;;;4.97;2.20;;;;;;;;;;4977034;28;20183;-73
2023/04/26 15:59:58;;;;;;;6.37;1.90;;;;;;;;;;4965305;28;20195;-73
2023/04/26 16:03:02;;;;;;;2.97;2.43;;;;;;;;;;4977245;28;20183;-72
2023/04/26 16:06:07;;;;;;;5.87;2.50;;;;;;;;;;4976843;28;20203;-72
2023/04/26 16:09:14;;;;;;;3.50;2.10;;;;;;;;;;4977225;28;20179;-72
2023/04/26 16:12:18;;;;;;;8.70;2.60;;;;;;;;;;4976759;28;20218;-73
2023/04/26 16:15:22;;;;;;;6.77;2.63;;;;;;;;;;4964872;28;20194;-74
2023/04/26 16:18:26;;;;;;;4.20;2.23;;;;;;;;;;4953696;28;20195;-73
2023/04/26 16:21:32;;;;;;;3.33;2.63;;;;;;;;;;4976676;28;20219;-73
2023/04/26 16:24:36;;;;;;;6.63;2.33;;;;;;;;;;4976670;28;20211;-73
2023/04/26 16:27:41;;;;;;;5.43;2.40;;;;;;;;;;4976100;28;20183;-73
2023/04/26 16:30:45;;;;;;;8.97;3.00;;;;;;;;;;4964783;28;20187;-73
2023/04/26 16:33:50;;;;;;;4.17;2.40;;;;;;;;;;4976500;28;20531;-72
2023/04/26 16:36:54;;;;;;;15.63;8.17;;;;;;;;;;4976656;28;20178;-73
2023/04/26 16:39:59;;;;;;;10.87;6.37;;;;;;;;;;4964618;28;20191;-73
2023/04/26 16:43:05;;;;;;;5.30;2.93;;;;;;;;;;4976513;28;20179;-73
2023/04/26 16:46:09;;;;;;;8.00;2.10;;;;;;;;;;4953468;28;20211;-73
2023/04/26 16:49:13;;;;;;;6.73;2.60;;;;;;;;;;4964302;28;20178;-74
2023/04/26 16:52:17;;;;;;;6.27;2.53;;;;;;;;;;4964349;28;20218;-74
2023/04/26 16:55:21;;;;;;;5.93;2.13;;;;;;;;;;4976393;28;20175;-73
2023/04/26 16:58:26;;;;;;;9.10;2.60;;;;;;;;;;4953390;28;20187;-74
2023/04/26 17:01:30;;;;;;;3.90;2.10;;;;;;;;;;4976449;28;20218;-74
2023/04/26 17:04:34;;;;;;;6.60;2.87;;;;;;;;;;4964302;28;20179;-74
2023/04/26 17:07:38;;;;;;;4.57;2.30;;;;;;;;;;4964415;28;20175;-74
2023/04/26 17:10:43;;;;;;;7.23;2.70;;;;;;;;;;4976122;28;20191;-73
2023/04/26 17:13:47;;;;;;;2.63;1.73;;;;;;;;;;4964442;28;20626;-73
2023/04/26 17:16:52;;;;;;;5.40;2.43;;;;;;;;;;4963801;28;20174;-73
2023/04/26 17:19:56;;;;;;;4.47;2.13;;;;;;;;;;4963689;28;20182;-74
2023/04/26 17:23:01;;;;;;;4.73;2.33;;;;;;;;;;4975916;28;20183;-73
2023/04/26 17:26:05;;;;;;;3.27;2.30;;;;;;;;;;4975496;28;20211;-73
2023/04/26 17:29:09;;;;;;;4.53;2.10;;;;;;;;;;4963970;28;20186;-74
2023/04/26 17:32:13;;;;;;;3.93;2.13;;;;;;;;;;4963376;28;20555;-74
2023/04/26 17:35:17;;;;;;;8.57;2.97;;;;;;;;;;4963349;28;20203;-74
2023/04/26 17:38:21;;;;;;;5.37;2.20;;;;;;;;;;4975717;28;20523;-74
2023/04/26 17:41:25;;;;;;;4.87;2.00;;;;;;;;;;4952272;28;20558;-74
2023/04/26 17:44:29;;;;;;;5.03;1.77;;;;;;;;;;4975346;28;20191;-74
2023/04/26 17:47:33;;;;;;;3.57;1.70;;;;;;;;;;4975356;28;20201;-74
2023/04/26 17:50:38;;;;;;;4.20;1.63;;;;;;;;;;4963074;28;20183;-74
2023/04/26 17:53:42;;;;;;;4.13;1.80;;;;;;;;;;4962912;28;20198;-74
2023/04/26 17:56:46;;;;;;;2.93;1.53;;;;;;;;;;4974233;28;20194;-74
2023/04/26 17:59:51;;;;;;;4.53;1.87;;;;;;;;;;4975188;28;20182;-74
2023/04/26 18:02:56;;;;;;;5.13;1.90;;;;;;;;;;4962817;28;20214;-74
2023/04/26 18:06:00;;;;;;;3.07;1.60;;;;;;;;;;4974935;28;20203;-74
2023/04/26 18:09:04;;;;;;;2.70;1.73;;;;;;;;;;4974821;28;20179;-74
2023/04/26 18:12:08;;;;;;;3.90;1.73;;;;;;;;;;4974641;28;20725;-74
2023/04/26 18:15:12;;;;;;;5.10;1.80;;;;;;;;;;4974876;28;20187;-74
2023/04/26 18:18:16;;;;;;;2.33;1.70;;;;;;;;;;4952175;28;20175;-74
2023/04/26 18:21:20;;;;;;;4.57;1.80;;;;;;;;;;4974561;28;20214;-73
2023/04/26 18:24:25;;;;;;;3.43;2.00;;;;;;;;;;4974526;28;20199;-74